Norton, North Carolina
Current Conditions -  °F | °C
As of 1:54 PM on Monday 20 Oct 2014 (Local Time) from KAVL Reporting Station
Clear Clear  
Wind Chill: 65°   Ceiling: Unl
Heat Index: 65°   Visibility: 10mi
Dew Point: 45°   Wind: 6mph
Humidity: 48%   Direction: 130°SE
Pressure: 30.03"   Gusts: NA
Location:  35.2608°N, 83.1173°W
Report Text: KAVL 201754Z 13005KT 10SM CLR 18/07 A3003 RMK AO2 SLP159 T01830072 10189 20039 58030
Loading
Personal Weather Stations






























Interactive Weather Map
Tropical Storm Tracking
New forecast layout! Learn more

10-Day Weather Forecast

Advertisements
Track Severe Weather on mobile